Time;durP1;ratioP1;P1;durP2;ratioP2;P2;SDS_P1;SDS_P2;PMS_P1;PMS_P2;Temp;Humidity;BMP_temperature;BMP_pressure;BME280_temperature;BME280_humidity;BME280_pressure;Samples;Min_cycle;Max_cycle;Signal;HPM_P1;HPM_P2
2022/06/01 00:00:56;;;;;;;1.25;1.15;;;16.00;99.90;;;;;;5072208;28;20104;-80
2022/06/01 00:03:23;;;;;;;3.08;1.15;;;16.00;99.90;;;;;;5072373;28;20033;-73
2022/06/01 00:05:51;;;;;;;1.60;1.40;;;16.00;99.90;;;;;;5072233;28;20094;-74
2022/06/01 00:08:17;;;;;;;1.30;0.90;;;16.00;99.90;;;;;;5070833;28;20110;-74
2022/06/01 00:10:42;;;;;;;1.42;1.17;;;16.10;99.90;;;;;;5054137;28;20029;-74
2022/06/01 00:13:08;;;;;;;1.75;1.25;;;16.10;99.90;;;;;;5051924;28;20029;-73
2022/06/01 00:15:34;;;;;;;1.33;1.17;;;16.10;99.90;;;;;;5052379;28;20415;-74
2022/06/01 00:18:00;;;;;;;2.08;1.20;;;16.00;99.90;;;;;;5051728;28;20432;-74
2022/06/01 00:20:27;;;;;;;0.90;0.90;;;16.00;99.90;;;;;;5067561;28;20465;-74
2022/06/01 00:22:53;;;;;;;2.78;1.25;;;16.00;99.90;;;;;;5071949;28;20048;-73
2022/06/01 00:25:19;;;;;;;1.30;1.10;;;16.00;99.90;;;;;;5071477;28;20457;-75
2022/06/01 00:27:44;;;;;;;1.73;1.20;;;16.00;99.90;;;;;;5072261;28;20484;-74
2022/06/01 00:30:13;;;;;;;1.48;1.25;;;16.00;99.90;;;;;;5071552;28;20016;-74
2022/06/01 00:32:39;;;;;;;1.70;1.17;;;16.00;99.90;;;;;;5071928;28;20115;-74
2022/06/01 00:35:07;;;;;;;1.85;1.10;;;16.00;99.90;;;;;;5071623;28;20033;-74
2022/06/01 00:37:33;;;;;;;1.83;1.30;;;16.10;99.90;;;;;;5072057;28;20516;-74
2022/06/01 00:39:58;;;;;;;1.38;1.10;;;16.10;99.90;;;;;;5071719;28;20067;-80
2022/06/01 00:42:29;;;;;;;1.42;1.33;;;16.10;99.90;;;;;;5071850;28;20031;-74
2022/06/01 00:44:55;;;;;;;1.55;0.90;;;16.00;99.90;;;;;;5071709;28;20088;-74
2022/06/01 00:47:23;;;;;;;1.35;1.10;;;16.00;99.90;;;;;;5071453;28;20024;-74
2022/06/01 00:49:56;;;;;;;3.60;1.05;;;16.00;99.90;;;;;;5072222;28;20056;-74
2022/06/01 00:52:35;;;;;;;2.63;1.10;;;16.00;99.90;;;;;;5071244;28;20033;-74
2022/06/01 00:55:21;;;;;;;1.63;1.23;;;16.00;99.90;;;;;;5071533;28;20044;-74
2022/06/01 00:57:50;;;;;;;1.25;1.15;;;15.90;99.90;;;;;;5070723;28;20357;-73
2022/06/01 01:00:23;;;;;;;1.45;1.13;;;16.00;99.90;;;;;;5071042;28;20494;-73
2022/06/01 01:02:52;;;;;;;0.80;0.80;;;16.00;99.90;;;;;;5071951;28;20036;-74
2022/06/01 01:05:19;;;;;;;1.13;0.98;;;16.00;99.90;;;;;;5071408;28;20111;-73
2022/06/01 01:07:45;;;;;;;1.10;0.93;;;16.00;99.90;;;;;;5071306;28;20321;-73
2022/06/01 01:10:13;;;;;;;0.80;0.80;;;16.00;99.90;;;;;;5071225;28;20039;-74
2022/06/01 01:15:32;;;;;;;1.02;0.80;;;16.00;99.90;;;;;;5071059;28;20036;-74
2022/06/01 01:17:59;;;;;;;1.30;1.00;;;16.10;99.90;;;;;;5071545;28;20033;-74
2022/06/01 01:20:26;;;;;;;1.33;1.17;;;16.10;99.90;;;;;;5071110;28;20460;-74
2022/06/01 01:23:05;;;;;;;1.25;1.00;;;16.10;99.90;;;;;;5073747;28;20036;-74
2022/06/01 01:25:38;;;;;;;1.65;1.08;;;16.00;99.90;;;;;;5075325;28;20115;-73
2022/06/01 01:28:05;;;;;;;1.48;0.93;;;16.00;99.90;;;;;;5074564;28;20523;-79
2022/06/01 01:30:40;;;;;;;1.00;0.90;;;16.00;99.90;;;;;;5075343;28;20033;-74
2022/06/01 01:33:07;;;;;;;1.73;0.80;;;16.00;99.90;;;;;;5074966;28;20081;-75
2022/06/01 01:35:33;;;;;;;0.93;0.90;;;16.00;99.90;;;;;;5075203;28;20136;-74
2022/06/01 01:38:06;;;;;;;1.52;0.95;;;16.00;99.90;;;;;;5075118;28;20492;-75
2022/06/01 01:40:32;;;;;;;2.17;0.77;;;16.10;99.90;;;;;;5074927;28;20363;-74
2022/06/01 01:43:00;;;;;;;1.10;0.90;;;16.10;99.90;;;;;;5074910;28;20372;-74
2022/06/01 01:45:28;;;;;;;2.97;1.15;;;16.10;99.90;;;;;;5074147;28;20638;-74
2022/06/01 01:47:54;;;;;;;1.42;1.00;;;16.10;99.90;;;;;;5074704;28;20056;-74
2022/06/01 01:50:21;;;;;;;3.30;1.00;;;16.10;99.90;;;;;;5074281;28;20125;-74
2022/06/01 01:52:47;;;;;;;2.15;0.88;;;16.20;99.90;;;;;;5074902;28;20390;-73
2022/06/01 01:55:51;;;;;;;2.00;0.80;;;16.20;99.90;;;;;;5074578;28;20044;-73
2022/06/01 01:59:01;;;;;;;1.63;1.08;;;16.20;99.90;;;;;;5074274;28;20036;-74
2022/06/01 02:02:01;;;;;;;1.00;0.90;;;16.30;99.90;;;;;;5033389;28;20041;-74
2022/06/01 02:07:32;;;;;;;0.80;0.80;;;16.40;99.90;;;;;;5054153;28;20099;-74
2022/06/01 02:12:43;;;;;;;0.82;0.80;;;16.40;99.90;;;;;;5054648;28;20376;-72
2022/06/01 02:15:18;;;;;;;1.20;0.88;;;16.40;99.90;;;;;;5053884;28;20391;-73
2022/06/01 02:17:50;;;;;;;1.65;1.30;;;16.40;99.90;;;;;;5054037;28;20480;-73
2022/06/01 02:20:47;;;;;;;1.08;0.98;;;16.40;99.90;;;;;;5054017;28;20028;-74
2022/06/01 02:23:15;;;;;;;1.33;0.93;;;16.30;99.90;;;;;;5053762;28;20036;-75
2022/06/01 02:25:44;;;;;;;1.35;0.90;;;16.20;99.90;;;;;;5056734;28;20021;-74
2022/06/01 02:28:11;;;;;;;2.13;0.88;;;16.20;99.90;;;;;;5053562;28;20512;-75
2022/06/01 02:30:40;;;;;;;2.42;0.85;;;16.20;99.90;;;;;;5054047;28;20450;-74
2022/06/01 02:33:17;;;;;;;1.35;1.02;;;16.20;99.90;;;;;;5052663;28;20485;-73
2022/06/01 02:35:48;;;;;;;1.00;0.90;;;16.10;99.90;;;;;;5053903;28;20364;-74
2022/06/01 02:38:20;;;;;;;0.95;0.95;;;16.20;99.90;;;;;;5053406;28;20032;-74
2022/06/01 02:40:46;;;;;;;1.10;0.85;;;16.10;99.90;;;;;;5054265;28;20082;-74
2022/06/01 02:43:12;;;;;;;1.55;1.10;;;16.10;99.90;;;;;;5054079;28;20043;-75
2022/06/01 02:45:39;;;;;;;0.80;0.80;;;16.10;99.90;;;;;;5053813;28;20132;-74
2022/06/01 02:48:06;;;;;;;1.58;1.00;;;16.00;99.90;;;;;;5054112;28;20052;-74
2022/06/01 02:50:35;;;;;;;0.77;0.77;;;16.00;99.90;;;;;;5054001;28;20342;-73
2022/06/01 02:53:01;;;;;;;2.10;1.10;;;15.90;99.90;;;;;;5053988;28;20035;-74
2022/06/01 02:55:29;;;;;;;1.10;1.00;;;15.90;99.90;;;;;;5053623;28;20025;-74
2022/06/01 02:57:55;;;;;;;1.83;1.13;;;15.90;99.90;;;;;;5053806;28;20064;-73
2022/06/01 03:00:23;;;;;;;1.17;1.00;;;15.80;99.90;;;;;;5053497;28;20036;-73
2022/06/01 03:02:51;;;;;;;2.35;0.90;;;15.80;99.90;;;;;;5053378;28;20024;-73
2022/06/01 03:05:19;;;;;;;1.23;1.00;;;15.80;99.90;;;;;;5052381;28;20033;-74
2022/06/01 03:07:45;;;;;;;1.50;1.00;;;15.80;99.90;;;;;;5053500;28;20029;-73
2022/06/01 03:10:11;;;;;;;1.20;1.10;;;15.80;99.90;;;;;;5053183;28;20031;-73
2022/06/01 03:12:38;;;;;;;1.73;1.13;;;15.80;99.90;;;;;;5052820;28;20028;-73
2022/06/01 03:15:06;;;;;;;1.48;1.08;;;15.80;99.90;;;;;;5053339;28;20029;-74
2022/06/01 03:17:32;;;;;;;2.85;0.88;;;15.80;99.90;;;;;;5052761;28;20029;-73
2022/06/01 03:19:58;;;;;;;2.33;1.63;;;15.70;99.90;;;;;;5053161;28;20100;-74
2022/06/01 03:22:24;;;;;;;3.75;0.93;;;15.70;99.90;;;;;;5052625;28;20025;-74
2022/06/01 03:24:50;;;;;;;1.35;1.10;;;15.70;99.90;;;;;;5053123;28;20029;-74
2022/06/01 03:27:17;;;;;;;1.63;1.08;;;15.60;99.90;;;;;;5052963;28;20036;-73
2022/06/01 03:29:43;;;;;;;1.00;0.80;;;15.60;99.90;;;;;;5053346;28;20029;-74
2022/06/01 03:32:09;;;;;;;1.48;1.20;;;15.60;99.90;;;;;;5053473;28;20036;-75
2022/06/01 03:34:35;;;;;;;0.77;0.75;;;15.60;99.90;;;;;;5052793;28;20100;-73
2022/06/01 03:37:02;;;;;;;1.13;1.00;;;15.60;99.90;;;;;;5053097;28;20041;-73
2022/06/01 03:39:28;;;;;;;0.90;0.90;;;15.70;99.90;;;;;;5051101;28;20079;-73
2022/06/01 03:41:54;;;;;;;1.05;0.95;;;15.60;99.90;;;;;;5053008;28;20465;-73
2022/06/01 03:47:09;;;;;;;0.90;0.63;;;15.70;99.90;;;;;;5051910;28;20067;-74
2022/06/01 03:49:35;;;;;;;0.98;0.88;;;15.80;99.90;;;;;;5052545;28;20059;-73
2022/06/01 03:52:01;;;;;;;3.08;0.90;;;15.80;99.90;;;;;;5052509;28;20029;-73
2022/06/01 03:54:26;;;;;;;1.30;1.15;;;15.90;99.90;;;;;;5051788;28;20021;-73
2022/06/01 03:56:52;;;;;;;1.05;1.05;;;15.90;99.90;;;;;;5052679;28;20028;-73
2022/06/01 03:59:18;;;;;;;1.33;0.80;;;15.90;99.90;;;;;;5052223;28;20036;-74
2022/06/01 04:01:43;;;;;;;0.90;0.90;;;15.90;99.90;;;;;;5054765;28;20021;-73
2022/06/01 04:04:09;;;;;;;1.20;0.90;;;16.00;99.90;;;;;;5052595;28;20040;-73
2022/06/01 04:06:34;;;;;;;0.95;0.95;;;16.10;99.90;;;;;;5052085;28;20120;-72
2022/06/01 04:09:00;;;;;;;0.80;0.65;;;16.10;99.90;;;;;;5052230;28;20031;-73
2022/06/01 04:11:26;;;;;;;0.95;0.80;;;16.20;99.90;;;;;;5052252;28;20059;-73
2022/06/01 04:13:51;;;;;;;0.85;0.80;;;16.30;99.90;;;;;;5052480;28;20036;-73
2022/06/01 04:16:19;;;;;;;1.27;1.00;;;16.40;99.90;;;;;;5051707;28;20028;-80
2022/06/01 04:18:46;;;;;;;1.00;0.90;;;16.50;99.90;;;;;;5052381;28;20056;-73
2022/06/01 04:21:12;;;;;;;0.80;0.80;;;16.60;99.90;;;;;;5052676;28;20106;-73
2022/06/01 04:23:38;;;;;;;1.02;0.85;;;16.80;99.90;;;;;;5050176;28;20021;-73
2022/06/01 04:26:03;;;;;;;1.27;0.80;;;16.90;99.90;;;;;;5061025;28;20391;-73
2022/06/01 04:28:29;;;;;;;1.05;0.90;;;17.00;99.90;;;;;;5059677;28;20028;-74
2022/06/01 04:30:55;;;;;;;3.83;0.82;;;17.10;99.90;;;;;;5051707;28;20029;-73
2022/06/01 04:33:21;;;;;;;1.73;1.10;;;17.30;99.90;;;;;;5051244;28;20537;-74
2022/06/01 04:35:46;;;;;;;0.68;0.55;;;17.40;99.90;;;;;;5051685;28;20127;-73
2022/06/01 04:38:12;;;;;;;1.13;0.98;;;17.60;99.90;;;;;;5051797;28;20032;-73
2022/06/01 04:40:39;;;;;;;0.75;0.75;;;17.80;99.90;;;;;;5052643;28;20357;-76
2022/06/01 04:43:05;;;;;;;2.38;1.50;;;18.00;99.90;;;;;;5058406;28;20033;-76
2022/06/01 04:45:30;;;;;;;1.55;1.00;;;18.20;99.90;;;;;;5061963;28;20047;-77
2022/06/01 04:47:56;;;;;;;0.80;0.70;;;18.40;99.30;;;;;;5053701;28;20021;-77
2022/06/01 04:50:21;;;;;;;0.60;0.60;;;18.70;98.00;;;;;;5067353;28;20063;-77
2022/06/01 04:52:47;;;;;;;0.65;0.65;;;18.90;96.80;;;;;;5058707;28;20060;-76
2022/06/01 04:55:13;;;;;;;0.88;0.70;;;19.10;95.90;;;;;;5060434;28;20108;-74
2022/06/01 04:57:39;;;;;;;1.08;0.93;;;19.20;94.20;;;;;;5054465;28;20904;-75
2022/06/01 05:00:07;;;;;;;0.70;0.60;;;19.50;93.90;;;;;;5062023;28;20028;-75
2022/06/01 05:02:33;;;;;;;1.10;0.80;;;19.80;93.30;;;;;;5057356;28;20476;-75
2022/06/01 05:04:58;;;;;;;0.85;0.77;;;20.00;92.30;;;;;;5068898;28;20033;-75
2022/06/01 05:07:25;;;;;;;1.42;0.80;;;20.40;90.40;;;;;;5071272;28;20032;-76
2022/06/01 05:09:51;;;;;;;0.70;0.70;;;20.70;87.60;;;;;;5071775;28;20365;-76
2022/06/01 05:12:16;;;;;;;0.88;0.75;;;21.40;86.00;;;;;;5071873;28;20021;-76
2022/06/01 05:14:42;;;;;;;0.85;0.60;;;22.10;81.60;;;;;;5071469;28;20030;-76
2022/06/01 05:17:08;;;;;;;0.57;0.57;;;22.70;76.50;;;;;;5071384;28;20024;-76
2022/06/01 05:19:34;;;;;;;0.63;0.60;;;23.80;73.10;;;;;;5070275;28;20485;-76
2022/06/01 05:22:00;;;;;;;1.63;0.70;;;24.40;67.20;;;;;;5069756;28;20028;-75
2022/06/01 05:24:25;;;;;;;0.65;0.65;;;24.70;64.90;;;;;;5070646;28;20138;-75
2022/06/01 05:26:51;;;;;;;0.95;0.80;;;25.10;63.70;;;;;;5070848;28;20033;-76
2022/06/01 05:29:17;;;;;;;0.70;0.57;;;26.30;61.10;;;;;;5063086;28;20086;-76
2022/06/01 05:31:44;;;;;;;0.70;0.70;;;27.80;55.50;;;;;;5049474;28;20094;-75
2022/06/01 05:34:10;;;;;;;0.88;0.60;;;28.90;52.60;;;;;;5051187;28;20053;-76
2022/06/01 05:36:36;;;;;;;0.57;0.57;;;29.60;48.50;;;;;;5050689;28;20090;-76
2022/06/01 05:39:03;;;;;;;1.33;0.80;;;29.80;48.90;;;;;;5051337;28;20039;-76
2022/06/01 05:41:28;;;;;;;1.35;0.60;;;30.10;47.40;;;;;;5051012;28;20048;-76
2022/06/01 05:43:54;;;;;;;1.25;0.70;;;30.60;47.10;;;;;;5050908;28;20134;-75
2022/06/01 05:46:21;;;;;;;1.13;0.55;;;31.10;45.70;;;;;;5051166;28;20036;-75
2022/06/01 05:48:47;;;;;;;1.35;0.60;;;31.50;44.20;;;;;;5051948;28;20099;-75
2022/06/01 05:51:12;;;;;;;0.38;0.38;;;32.00;43.50;;;;;;5051210;28;20108;-76
2022/06/01 05:53:38;;;;;;;1.40;0.85;;;32.90;42.00;;;;;;5050963;28;20364;-76
2022/06/01 05:56:04;;;;;;;1.10;0.60;;;33.30;40.50;;;;;;5049984;28;20083;-75
2022/06/01 05:58:30;;;;;;;0.88;0.52;;;33.30;38.80;;;;;;5050759;28;20208;-77
2022/06/01 06:01:00;;;;;;;0.88;0.50;;;33.60;37.40;;;;;;5053349;28;20049;-76
2022/06/01 06:03:27;;;;;;;0.60;0.35;;;32.70;37.50;;;;;;5050743;28;20025;-77
2022/06/01 06:06:12;;;;;;;0.88;0.63;;;32.50;38.60;;;;;;5051217;28;20025;-76
2022/06/01 06:08:39;;;;;;;0.63;0.55;;;32.40;38.50;;;;;;5051003;28;20086;-76
2022/06/01 06:11:06;;;;;;;1.00;0.60;;;32.20;38.60;;;;;;5054615;28;20414;-76
2022/06/01 06:13:36;;;;;;;0.88;0.40;;;32.30;38.80;;;;;;5054328;28;20061;-76
2022/06/01 06:16:03;;;;;;;0.47;0.47;;;32.40;38.30;;;;;;5054550;28;20139;-76
2022/06/01 06:18:29;;;;;;;0.52;0.52;;;32.10;38.10;;;;;;5052823;28;20530;-76
2022/06/01 06:20:55;;;;;;;0.77;0.55;;;31.90;38.70;;;;;;5054142;28;20025;-76
2022/06/01 06:23:21;;;;;;;1.15;0.75;;;32.10;39.30;;;;;;5054281;28;20086;-75
2022/06/01 06:25:47;;;;;;;0.95;0.43;;;31.70;38.80;;;;;;5053602;28;20045;-76
2022/06/01 06:28:13;;;;;;;0.68;0.40;;;31.00;41.10;;;;;;5054324;28;20033;-75
2022/06/01 06:30:39;;;;;;;0.43;0.40;;;30.40;41.00;;;;;;5053972;28;20483;-76
2022/06/01 06:33:06;;;;;;;1.55;0.68;;;29.60;42.60;;;;;;5057688;28;20036;-76
2022/06/01 06:35:32;;;;;;;0.85;0.60;;;29.30;43.20;;;;;;5053190;28;20098;-76
2022/06/01 06:37:59;;;;;;;0.50;0.50;;;28.90;42.40;;;;;;5053814;28;20040;-76
2022/06/01 06:40:25;;;;;;;0.40;0.40;;;28.70;43.20;;;;;;5053329;28;20354;-82
2022/06/01 06:42:52;;;;;;;0.95;0.70;;;29.20;43.80;;;;;;5052535;28;20021;-76
2022/06/01 06:45:19;;;;;;;1.33;0.60;;;29.20;42.30;;;;;;5053574;28;20141;-77
2022/06/01 06:47:45;;;;;;;0.85;0.73;;;29.10;43.10;;;;;;5053261;28;20040;-76
2022/06/01 06:50:12;;;;;;;0.50;0.50;;;29.40;42.70;;;;;;5053750;28;20040;-75
2022/06/01 06:52:38;;;;;;;0.50;0.50;;;29.10;42.60;;;;;;5053336;28;20029;-76
2022/06/01 06:55:05;;;;;;;1.25;0.50;;;29.40;43.10;;;;;;5053458;28;20029;-76
2022/06/01 06:57:31;;;;;;;1.02;0.50;;;29.10;41.90;;;;;;5053488;28;20029;-75
2022/06/01 06:59:56;;;;;;;0.82;0.60;;;28.60;42.70;;;;;;5053296;28;20057;-75
2022/06/01 07:02:22;;;;;;;0.70;0.70;;;28.20;43.20;;;;;;5052201;28;20052;-76
2022/06/01 07:04:47;;;;;;;0.63;0.57;;;27.80;44.00;;;;;;5053335;28;20469;-76
2022/06/01 07:07:14;;;;;;;0.43;0.40;;;27.40;45.40;;;;;;5053359;28;20473;-75
2022/06/01 07:09:40;;;;;;;1.08;0.70;;;27.10;45.70;;;;;;5052850;28;20068;-76
2022/06/01 07:12:06;;;;;;;0.52;0.50;;;26.90;46.20;;;;;;5053725;28;20458;-76
2022/06/01 07:14:32;;;;;;;1.10;0.77;;;27.00;47.00;;;;;;5052682;28;20108;-76
2022/06/01 07:17:01;;;;;;;1.00;0.70;;;26.90;47.10;;;;;;5053347;28;20112;-76
2022/06/01 07:19:27;;;;;;;1.23;0.88;;;26.70;47.80;;;;;;5052476;28;20102;-82
2022/06/01 07:21:54;;;;;;;1.33;0.70;;;26.50;48.10;;;;;;5067431;28;20028;-77
2022/06/01 07:24:19;;;;;;;1.23;0.68;;;26.40;48.70;;;;;;5072774;28;20457;-76
2022/06/01 07:26:46;;;;;;;1.00;0.68;;;26.10;48.10;;;;;;5072304;28;20040;-75
2022/06/01 07:29:13;;;;;;;1.17;0.60;;;26.00;49.30;;;;;;5073042;28;20094;-75
2022/06/01 07:31:39;;;;;;;0.65;0.65;;;26.00;49.80;;;;;;5072248;28;20353;-75
2022/06/01 07:34:05;;;;;;;0.50;0.50;;;26.10;49.20;;;;;;5072778;28;20062;-76
2022/06/01 07:36:32;;;;;;;0.47;0.47;;;26.00;49.40;;;;;;5071060;28;20531;-77
2022/06/01 07:44:35;;;;;;;0.93;0.73;;;26.10;50.00;;;;;;5072565;28;20067;-76
2022/06/01 07:47:00;;;;;;;0.77;0.77;;;26.40;49.90;;;;;;5072780;28;20115;-76
2022/06/01 07:49:26;;;;;;;1.70;1.08;;;26.70;48.50;;;;;;5073013;28;20161;-75
2022/06/01 07:51:53;;;;;;;0.50;0.50;;;26.80;48.20;;;;;;5072246;28;20035;-75
2022/06/01 07:54:19;;;;;;;0.82;0.55;;;26.80;48.20;;;;;;5072980;28;20035;-75
2022/06/01 07:56:45;;;;;;;0.70;0.70;;;26.90;47.20;;;;;;5071925;28;20036;-76
2022/06/01 07:59:11;;;;;;;0.60;0.50;;;27.00;47.10;;;;;;5069418;28;20080;-76
2022/06/01 08:01:37;;;;;;;0.70;0.70;;;26.80;47.10;;;;;;5071864;28;20115;-76
2022/06/01 08:04:05;;;;;;;1.33;0.77;;;26.80;47.10;;;;;;5072367;28;20131;-76
2022/06/01 08:06:33;;;;;;;0.65;0.57;;;26.70;46.70;;;;;;5071941;28;20044;-76
2022/06/01 08:08:58;;;;;;;2.25;0.60;;;26.70;47.10;;;;;;5072460;28;20455;-75
2022/06/01 08:14:13;;;;;;;0.77;0.70;;;26.50;47.10;;;;;;5041176;28;20119;-75
2022/06/01 08:16:40;;;;;;;1.08;0.70;;;26.40;46.60;;;;;;5072043;28;20039;-75
2022/06/01 08:19:06;;;;;;;0.40;0.40;;;26.60;46.80;;;;;;5072655;28;20104;-75
2022/06/01 08:21:33;;;;;;;0.47;0.47;;;26.50;47.70;;;;;;5072053;28;20033;-76
2022/06/01 08:23:59;;;;;;;0.63;0.52;;;26.40;47.60;;;;;;5071472;28;20491;-76
2022/06/01 08:26:25;;;;;;;1.08;0.70;;;26.30;48.30;;;;;;5072214;28;20032;-75
2022/06/01 08:28:51;;;;;;;0.57;0.57;;;26.10;48.00;;;;;;5071789;28;20235;-76
2022/06/01 08:31:17;;;;;;;0.80;0.80;;;25.90;48.10;;;;;;5071885;28;20025;-76
2022/06/01 08:33:43;;;;;;;0.60;0.60;;;25.50;48.30;;;;;;5072007;28;20078;-76
2022/06/01 08:36:08;;;;;;;0.77;0.70;;;25.40;48.40;;;;;;5072409;28;20443;-75
2022/06/01 08:38:34;;;;;;;0.60;0.60;;;25.30;49.80;;;;;;5070047;28;20028;-76
2022/06/01 08:41:13;;;;;;;0.60;0.60;;;25.20;49.70;;;;;;5053179;28;20036;-75
2022/06/01 08:43:44;;;;;;;0.57;0.57;;;24.80;50.10;;;;;;5051623;28;20393;-76
2022/06/01 08:46:12;;;;;;;3.83;0.93;;;24.80;51.00;;;;;;5052269;28;20037;-75
2022/06/01 08:48:46;;;;;;;0.60;0.60;;;24.70;49.80;;;;;;5050529;28;20029;-75
2022/06/01 08:51:13;;;;;;;0.70;0.70;;;24.50;50.40;;;;;;5052302;28;20071;-76
2022/06/01 08:53:40;;;;;;;2.65;0.77;;;24.30;51.30;;;;;;5051794;28;20021;-76
2022/06/01 08:56:29;;;;;;;0.50;0.50;;;24.30;52.20;;;;;;5052173;28;20037;-76
2022/06/01 08:59:21;;;;;;;1.00;0.80;;;24.20;51.60;;;;;;5051958;28;20527;-75
2022/06/01 09:02:05;;;;;;;1.20;0.82;;;24.20;52.80;;;;;;5051738;28;20479;-76
2022/06/01 09:05:07;;;;;;;0.70;0.60;;;24.10;51.70;;;;;;5052088;28;20029;-75
2022/06/01 09:07:49;;;;;;;0.77;0.65;;;24.00;52.30;;;;;;5051897;28;20112;-74
2022/06/01 09:10:39;;;;;;;1.02;0.60;;;23.90;52.60;;;;;;5051959;28;20032;-76
2022/06/01 09:13:14;;;;;;;1.10;0.75;;;23.90;53.40;;;;;;5052236;28;20017;-75
2022/06/01 09:15:49;;;;;;;2.15;0.85;;;23.80;53.00;;;;;;5051202;28;20414;-76
2022/06/01 09:18:19;;;;;;;1.35;0.88;;;23.80;53.40;;;;;;5051954;28;20540;-76
2022/06/01 09:23:29;;;;;;;1.58;0.80;;;23.90;52.70;;;;;;5051687;28;20074;-75
2022/06/01 09:25:57;;;;;;;1.95;0.70;;;23.90;53.80;;;;;;5051111;28;20112;-75
2022/06/01 09:28:29;;;;;;;1.70;1.17;;;24.00;52.40;;;;;;5051624;28;20025;-75
2022/06/01 09:31:00;;;;;;;0.73;0.60;;;23.90;52.70;;;;;;5050938;28;20342;-75
2022/06/01 09:33:31;;;;;;;1.50;0.70;;;23.90;52.40;;;;;;5051659;28;20082;-75
2022/06/01 09:36:06;;;;;;;1.67;1.00;;;23.80;51.80;;;;;;5051054;28;20123;-75
2022/06/01 09:38:47;;;;;;;0.85;0.85;;;23.70;52.20;;;;;;5051459;28;20074;-75
2022/06/01 09:41:18;;;;;;;0.93;0.70;;;23.60;51.80;;;;;;5051399;28;20032;-76
2022/06/01 09:44:10;;;;;;;0.85;0.70;;;23.70;52.70;;;;;;5051397;28;20396;-75
2022/06/01 09:46:55;;;;;;;0.82;0.70;;;23.70;52.40;;;;;;5054534;28;20037;-79
2022/06/01 09:49:25;;;;;;;0.77;0.73;;;23.80;52.10;;;;;;5055340;28;20025;-75
2022/06/01 09:52:01;;;;;;;0.70;0.70;;;23.80;51.60;;;;;;5054866;28;20067;-76
2022/06/01 09:54:32;;;;;;;1.98;0.90;;;23.70;51.50;;;;;;5053804;28;20036;-75
2022/06/01 09:57:18;;;;;;;0.60;0.60;;;23.80;51.00;;;;;;5054735;28;20056;-75
2022/06/01 10:08:19;;;;;;;3.25;0.90;;;23.90;51.00;;;;;;5070218;28;20086;-76
2022/06/01 10:11:02;;;;;;;0.70;0.70;;;24.00;52.10;;;;;;5074494;28;20020;-75
2022/06/01 10:13:52;;;;;;;1.08;0.80;;;24.00;51.50;;;;;;5074899;28;20469;-75
2022/06/01 10:16:45;;;;;;;1.13;0.75;;;24.10;52.90;;;;;;5074839;28;20142;-75
2022/06/01 10:19:16;;;;;;;1.63;0.77;;;24.20;51.10;;;;;;5074626;28;20081;-75
2022/06/01 10:21:56;;;;;;;2.30;0.82;;;24.30;50.10;;;;;;5073139;28;20119;-76
2022/06/01 10:24:34;;;;;;;2.38;1.10;;;24.20;49.90;;;;;;5074854;28;20059;-75
2022/06/01 10:27:00;;;;;;;0.45;0.45;;;24.40;50.80;;;;;;5074230;28;20173;-75
2022/06/01 10:29:36;;;;;;;0.80;0.70;;;24.50;51.00;;;;;;5074603;28;20071;-75
2022/06/01 10:32:08;;;;;;;1.95;0.70;;;24.50;50.70;;;;;;5074098;28;20058;-75
2022/06/01 10:34:52;;;;;;;0.80;0.80;;;24.60;50.10;;;;;;5074531;28;20125;-75
2022/06/01 10:37:30;;;;;;;1.33;0.82;;;24.70;50.80;;;;;;5074423;28;20028;-76
2022/06/01 10:40:15;;;;;;;2.72;0.70;;;24.90;50.40;;;;;;5073885;28;20531;-75
2022/06/01 10:45:49;;;;;;;3.15;0.98;;;24.90;48.90;;;;;;5059321;28;20052;-80
2022/06/01 10:48:31;;;;;;;1.80;1.15;;;25.00;49.80;;;;;;5054123;28;20032;-75
2022/06/01 10:51:07;;;;;;;1.00;0.90;;;25.00;48.70;;;;;;5053767;28;20057;-75
2022/06/01 10:53:35;;;;;;;0.90;0.70;;;25.10;48.80;;;;;;5053748;28;20462;-75
2022/06/01 10:56:01;;;;;;;0.80;0.70;;;25.00;49.40;;;;;;5053226;28;20635;-75
2022/06/01 10:58:29;;;;;;;0.52;0.52;;;25.00;49.00;;;;;;5053788;28;20029;-75
2022/06/01 11:00:59;;;;;;;1.67;1.00;;;25.00;49.00;;;;;;5053626;28;20093;-75
2022/06/01 11:03:37;;;;;;;0.60;0.60;;;25.10;49.50;;;;;;5053944;28;20028;-76
2022/06/01 11:06:21;;;;;;;2.58;1.08;;;25.00;48.10;;;;;;5052850;28;20481;-76
2022/06/01 11:09:35;;;;;;;1.20;0.73;;;25.10;48.70;;;;;;5053486;28;20441;-76
2022/06/01 11:12:36;;;;;;;0.77;0.75;;;25.10;47.40;;;;;;5039719;28;20041;-75
2022/06/01 11:15:33;;;;;;;1.35;0.70;;;24.90;47.80;;;;;;5020486;28;20655;-75
2022/06/01 11:18:04;;;;;;;0.73;0.70;;;24.90;48.20;;;;;;5053176;28;20029;-75
2022/06/01 11:20:32;;;;;;;;;;;24.90;47.80;;;;;;5054109;28;20108;-75
2022/06/01 11:23:35;;;;;;;0.70;0.70;;;24.90;48.50;;;;;;5053483;28;19958;-75
2022/06/01 11:26:23;;;;;;;0.80;0.70;;;24.90;47.80;;;;;;5052961;28;20032;-75
2022/06/01 11:29:12;;;;;;;1.63;0.80;;;25.00;47.70;;;;;;5053131;28;20032;-75
2022/06/01 11:31:39;;;;;;;1.33;0.80;;;25.10;45.90;;;;;;5053741;28;20120;-76
2022/06/01 11:34:10;;;;;;;1.02;0.93;;;25.10;46.30;;;;;;5053373;28;20025;-75
2022/06/01 11:37:07;;;;;;;2.00;0.68;;;25.10;44.50;;;;;;5053349;28;20115;-76
2022/06/01 11:39:50;;;;;;;3.53;1.23;;;25.10;44.50;;;;;;5053393;28;20032;-76
2022/06/01 11:42:56;;;;;;;0.85;0.57;;;25.20;45.80;;;;;;5053346;28;20553;-76
2022/06/01 11:45:39;;;;;;;0.70;0.60;;;25.30;45.90;;;;;;5051317;28;20481;-76
2022/06/01 11:48:10;;;;;;;1.20;0.60;;;25.30;42.20;;;;;;5052633;28;20029;-75
2022/06/01 11:50:46;;;;;;;1.48;0.60;;;25.30;41.70;;;;;;5051964;28;20074;-75
2022/06/01 11:53:19;;;;;;;1.33;0.70;;;25.30;42.00;;;;;;5053563;28;20032;-75
2022/06/01 11:55:48;;;;;;;0.50;0.50;;;25.30;41.10;;;;;;5053235;28;20036;-82
2022/06/01 11:58:38;;;;;;;1.10;0.60;;;25.30;41.20;;;;;;5053068;28;20032;-75
2022/06/01 12:01:13;;;;;;;1.02;0.47;;;25.30;41.90;;;;;;5052590;28;20060;-75
2022/06/01 12:03:55;;;;;;;0.60;0.60;;;25.30;42.60;;;;;;5055652;28;20056;-76
2022/06/01 12:06:56;;;;;;;1.13;0.60;;;25.30;40.10;;;;;;5052072;28;20094;-75
2022/06/01 12:09:40;;;;;;;0.68;0.68;;;25.30;37.80;;;;;;4971624;28;20483;-76
2022/06/01 12:12:07;;;;;;;0.68;0.60;;;25.20;37.10;;;;;;5044819;28;20029;-76
2022/06/01 12:14:32;;;;;;;0.60;0.60;;;25.30;37.80;;;;;;5052756;28;20024;-76
2022/06/01 12:17:20;;;;;;;0.63;0.60;;;25.30;37.60;;;;;;5052039;28;20425;-76
2022/06/01 12:19:51;;;;;;;1.08;0.60;;;25.30;37.10;;;;;;5052168;28;20397;-75
2022/06/01 12:28:43;;;;;;;0.63;0.60;;;25.20;35.00;;;;;;5052370;28;20032;-75
2022/06/01 12:31:16;;;;;;;0.75;0.63;;;25.20;35.50;;;;;;5051901;28;20064;-75
2022/06/01 12:34:03;;;;;;;1.40;0.68;;;25.20;34.50;;;;;;5052319;28;20104;-75
2022/06/01 12:36:42;;;;;;;0.65;0.43;;;25.10;34.80;;;;;;5052169;28;20108;-75
2022/06/01 12:39:13;;;;;;;1.35;0.73;;;25.10;35.00;;;;;;5051520;28;20805;-74
2022/06/01 12:41:41;;;;;;;0.40;0.40;;;25.10;35.70;;;;;;5052128;28;20036;-75
2022/06/01 12:44:09;;;;;;;2.67;1.05;;;25.10;34.40;;;;;;5051342;28;20063;-75
2022/06/01 12:46:41;;;;;;;0.82;0.60;;;25.10;33.70;;;;;;5052107;28;20557;-75
2022/06/01 12:49:30;;;;;;;0.93;0.77;;;25.10;34.80;;;;;;5051607;28;20094;-75
2022/06/01 12:52:06;;;;;;;0.73;0.60;;;25.10;35.20;;;;;;5051628;28;20029;-76
2022/06/01 12:55:04;;;;;;;1.58;0.80;;;25.10;35.10;;;;;;5065540;28;20036;-76
2022/06/01 12:57:31;;;;;;;0.70;0.60;;;25.10;35.20;;;;;;5068173;28;20059;-75
2022/06/01 13:00:13;;;;;;;1.35;0.60;;;25.10;35.10;;;;;;5071171;28;20098;-76
2022/06/01 13:02:41;;;;;;;1.15;0.73;;;25.10;35.60;;;;;;5072345;28;20020;-76
2022/06/01 13:05:10;;;;;;;2.47;0.80;;;25.10;35.20;;;;;;5071509;28;20461;-76
2022/06/01 13:07:42;;;;;;;1.73;0.75;;;25.20;35.60;;;;;;5071487;28;20028;-76
2022/06/01 13:10:20;;;;;;;0.98;0.60;;;25.10;35.40;;;;;;5071357;28;20021;-75
2022/06/01 13:12:47;;;;;;;1.35;0.85;;;25.10;35.20;;;;;;5071965;28;20035;-75
2022/06/01 13:15:16;;;;;;;1.88;0.73;;;25.10;36.40;;;;;;5071412;28;20033;-75
2022/06/01 13:17:51;;;;;;;0.77;0.47;;;25.20;37.50;;;;;;5072133;28;20087;-75
2022/06/01 13:20:19;;;;;;;0.63;0.60;;;25.20;35.20;;;;;;5076006;28;20056;-75
2022/06/01 13:22:50;;;;;;;2.47;0.80;;;25.20;34.40;;;;;;5075788;28;20126;-76
2022/06/01 13:25:26;;;;;;;0.65;0.60;;;25.20;34.80;;;;;;5075347;28;20035;-75
2022/06/01 13:27:53;;;;;;;0.85;0.75;;;25.20;34.70;;;;;;5075771;28;20040;-81
2022/06/01 13:30:19;;;;;;;0.75;0.68;;;25.20;35.00;;;;;;5074220;28;20278;-75
2022/06/01 13:32:48;;;;;;;0.90;0.70;;;25.30;35.50;;;;;;5075712;28;20020;-75
2022/06/01 13:35:31;;;;;;;0.75;0.70;;;25.30;36.50;;;;;;5075157;28;20033;-75
2022/06/01 13:37:57;;;;;;;0.50;0.50;;;25.30;36.90;;;;;;5075332;28;20024;-75
2022/06/01 13:40:25;;;;;;;0.55;0.55;;;25.40;36.60;;;;;;5075863;28;20048;-76
2022/06/01 13:43:10;;;;;;;0.70;0.70;;;25.30;36.40;;;;;;5074151;28;20468;-76
2022/06/01 13:45:48;;;;;;;1.95;0.70;;;25.30;37.00;;;;;;5075598;28;20136;-76
2022/06/01 13:48:33;;;;;;;0.95;0.50;;;25.30;36.70;;;;;;5075176;28;20025;-76